sensor_id;sensor_type;location;lat;lon;timestamp;temperature;humidity
22908;DHT22;11620;50.050;8.690;2022-08-25T00:01:57;24.70;99.00
22908;DHT22;11620;50.050;8.690;2022-08-25T00:04:45;24.70;99.20
22908;DHT22;11620;50.050;8.690;2022-08-25T00:07:32;24.70;99.40
22908;DHT22;11620;50.050;8.690;2022-08-25T00:10:19;24.70;99.60
22908;DHT22;11620;50.050;8.690;2022-08-25T00:13:05;24.70;99.70
22908;DHT22;11620;50.050;8.690;2022-08-25T00:15:52;24.70;99.70
22908;DHT22;11620;50.050;8.690;2022-08-25T00:18:40;24.70;99.90
22908;DHT22;11620;50.050;8.690;2022-08-25T00:21:27;24.60;99.90
22908;DHT22;11620;50.050;8.690;2022-08-25T00:24:15;24.60;99.90
22908;DHT22;11620;50.050;8.690;2022-08-25T00:27:02;24.50;99.90
22908;DHT22;11620;50.050;8.690;2022-08-25T00:29:49;24.60;99.90
22908;DHT22;11620;50.050;8.690;2022-08-25T00:32:36;24.60;99.90
22908;DHT22;11620;50.050;8.690;2022-08-25T00:35:23;24.60;99.90
22908;DHT22;11620;50.050;8.690;2022-08-25T00:38:10;24.60;99.90
22908;DHT22;11620;50.050;8.690;2022-08-25T00:41:01;24.50;99.90
22908;DHT22;11620;50.050;8.690;2022-08-25T00:43:57;24.50;99.90
22908;DHT22;11620;50.050;8.690;2022-08-25T00:46:47;24.50;99.90
22908;DHT22;11620;50.050;8.690;2022-08-25T00:50:04;24.60;99.90
22908;DHT22;11620;50.050;8.690;2022-08-25T00:52:53;24.50;99.90
22908;DHT22;11620;50.050;8.690;2022-08-25T00:55:40;24.50;99.90
22908;DHT22;11620;50.050;8.690;2022-08-25T00:58:28;24.50;99.90
22908;DHT22;11620;50.050;8.690;2022-08-25T01:01:16;24.40;99.90
22908;DHT22;11620;50.050;8.690;2022-08-25T01:04:03;24.40;99.90
22908;DHT22;11620;50.050;8.690;2022-08-25T01:06:49;24.30;99.90
22908;DHT22;11620;50.050;8.690;2022-08-25T01:09:37;24.40;99.90
22908;DHT22;11620;50.050;8.690;2022-08-25T01:12:23;24.40;99.90
22908;DHT22;11620;50.050;8.690;2022-08-25T01:15:12;24.30;99.90
22908;DHT22;11620;50.050;8.690;2022-08-25T01:17:58;24.20;99.90
22908;DHT22;11620;50.050;8.690;2022-08-25T01:20:51;24.30;99.90
22908;DHT22;11620;50.050;8.690;2022-08-25T01:23:38;24.20;99.90
22908;DHT22;11620;50.050;8.690;2022-08-25T01:26:29;24.20;99.90
22908;DHT22;11620;50.050;8.690;2022-08-25T01:29:16;24.20;99.90
22908;DHT22;11620;50.050;8.690;2022-08-25T01:32:11;24.20;99.90
22908;DHT22;11620;50.050;8.690;2022-08-25T01:34:58;24.20;99.90
22908;DHT22;11620;50.050;8.690;2022-08-25T01:37:44;24.20;99.90
22908;DHT22;11620;50.050;8.690;2022-08-25T01:40:32;24.20;99.90
22908;DHT22;11620;50.050;8.690;2022-08-25T01:43:30;24.10;99.90
22908;DHT22;11620;50.050;8.690;2022-08-25T01:46:21;24.10;99.90
22908;DHT22;11620;50.050;8.690;2022-08-25T01:49:07;24.10;99.90
22908;DHT22;11620;50.050;8.690;2022-08-25T01:54:55;24.10;99.90
22908;DHT22;11620;50.050;8.690;2022-08-25T01:57:42;24.00;99.90
22908;DHT22;11620;50.050;8.690;2022-08-25T02:00:28;24.10;99.90
22908;DHT22;11620;50.050;8.690;2022-08-25T02:03:15;24.00;99.90
22908;DHT22;11620;50.050;8.690;2022-08-25T02:06:03;23.90;99.90
22908;DHT22;11620;50.050;8.690;2022-08-25T02:08:55;24.00;99.90
22908;DHT22;11620;50.050;8.690;2022-08-25T02:11:44;24.00;99.90
22908;DHT22;11620;50.050;8.690;2022-08-25T02:14:31;24.00;99.90
22908;DHT22;11620;50.050;8.690;2022-08-25T02:17:18;23.90;99.90
22908;DHT22;11620;50.050;8.690;2022-08-25T02:20:05;23.90;99.90
22908;DHT22;11620;50.050;8.690;2022-08-25T02:22:55;23.90;99.90
22908;DHT22;11620;50.050;8.690;2022-08-25T02:25:41;23.80;99.90
22908;DHT22;11620;50.050;8.690;2022-08-25T02:28:28;23.80;99.90
22908;DHT22;11620;50.050;8.690;2022-08-25T02:31:15;23.80;99.90
22908;DHT22;11620;50.050;8.690;2022-08-25T02:34:03;23.70;99.90
22908;DHT22;11620;50.050;8.690;2022-08-25T02:36:50;23.70;99.90
22908;DHT22;11620;50.050;8.690;2022-08-25T02:39:36;23.70;99.90
22908;DHT22;11620;50.050;8.690;2022-08-25T02:42:22;23.60;99.90
22908;DHT22;11620;50.050;8.690;2022-08-25T02:45:09;23.60;99.90
22908;DHT22;11620;50.050;8.690;2022-08-25T02:47:56;23.60;99.90
22908;DHT22;11620;50.050;8.690;2022-08-25T02:50:46;23.60;99.90
22908;DHT22;11620;50.050;8.690;2022-08-25T02:53:35;23.60;99.90
22908;DHT22;11620;50.050;8.690;2022-08-25T02:56:26;23.60;99.90
22908;DHT22;11620;50.050;8.690;2022-08-25T02:59:13;23.50;99.90
22908;DHT22;11620;50.050;8.690;2022-08-25T03:01:59;23.50;99.90
22908;DHT22;11620;50.050;8.690;2022-08-25T03:04:46;23.50;99.90
22908;DHT22;11620;50.050;8.690;2022-08-25T03:07:33;23.50;99.90
22908;DHT22;11620;50.050;8.690;2022-08-25T03:10:19;23.40;99.90
22908;DHT22;11620;50.050;8.690;2022-08-25T03:13:06;23.40;99.90
22908;DHT22;11620;50.050;8.690;2022-08-25T03:15:52;23.40;99.90
22908;DHT22;11620;50.050;8.690;2022-08-25T03:18:40;23.30;99.90
22908;DHT22;11620;50.050;8.690;2022-08-25T03:21:28;23.30;99.90
22908;DHT22;11620;50.050;8.690;2022-08-25T03:24:15;23.30;99.90
22908;DHT22;11620;50.050;8.690;2022-08-25T03:27:01;23.20;99.90
22908;DHT22;11620;50.050;8.690;2022-08-25T03:29:47;23.20;99.90
22908;DHT22;11620;50.050;8.690;2022-08-25T03:32:34;23.20;99.90
22908;DHT22;11620;50.050;8.690;2022-08-25T03:35:21;23.20;99.90
22908;DHT22;11620;50.050;8.690;2022-08-25T03:38:07;23.20;99.90
22908;DHT22;11620;50.050;8.690;2022-08-25T03:40:56;23.20;99.90
22908;DHT22;11620;50.050;8.690;2022-08-25T03:43:43;23.10;99.90
22908;DHT22;11620;50.050;8.690;2022-08-25T03:46:37;22.90;99.90
22908;DHT22;11620;50.050;8.690;2022-08-25T03:49:24;23.10;99.90
22908;DHT22;11620;50.050;8.690;2022-08-25T03:52:10;23.10;99.90
22908;DHT22;11620;50.050;8.690;2022-08-25T03:54:57;23.10;99.90
22908;DHT22;11620;50.050;8.690;2022-08-25T03:57:43;23.00;99.90
22908;DHT22;11620;50.050;8.690;2022-08-25T04:00:29;23.00;99.90
22908;DHT22;11620;50.050;8.690;2022-08-25T04:03:17;23.00;99.90
22908;DHT22;11620;50.050;8.690;2022-08-25T04:06:05;23.00;99.90
22908;DHT22;11620;50.050;8.690;2022-08-25T04:08:51;22.90;99.90
22908;DHT22;11620;50.050;8.690;2022-08-25T04:11:38;22.90;99.90
22908;DHT22;11620;50.050;8.690;2022-08-25T04:14:27;22.80;99.90
22908;DHT22;11620;50.050;8.690;2022-08-25T04:17:14;22.80;99.90
22908;DHT22;11620;50.050;8.690;2022-08-25T04:20:01;22.80;99.90
22908;DHT22;11620;50.050;8.690;2022-08-25T04:22:47;22.70;99.90
22908;DHT22;11620;50.050;8.690;2022-08-25T04:25:34;22.70;99.90
22908;DHT22;11620;50.050;8.690;2022-08-25T04:28:20;22.70;99.90
22908;DHT22;11620;50.050;8.690;2022-08-25T04:31:11;22.70;99.90
22908;DHT22;11620;50.050;8.690;2022-08-25T04:34:03;22.70;99.90
22908;DHT22;11620;50.050;8.690;2022-08-25T04:36:49;22.70;99.90
22908;DHT22;11620;50.050;8.690;2022-08-25T04:39:36;22.70;99.90
22908;DHT22;11620;50.050;8.690;2022-08-25T04:42:25;22.60;99.90
22908;DHT22;11620;50.050;8.690;2022-08-25T04:45:12;22.60;99.90
22908;DHT22;11620;50.050;8.690;2022-08-25T04:48:00;22.50;99.90
22908;DHT22;11620;50.050;8.690;2022-08-25T04:50:47;22.50;99.90
22908;DHT22;11620;50.050;8.690;2022-08-25T04:53:33;22.50;99.90
22908;DHT22;11620;50.050;8.690;2022-08-25T04:56:20;22.50;99.90
22908;DHT22;11620;50.050;8.690;2022-08-25T04:59:11;22.50;99.90
22908;DHT22;11620;50.050;8.690;2022-08-25T05:01:56;22.50;99.90
22908;DHT22;11620;50.050;8.690;2022-08-25T05:04:42;22.50;99.90
22908;DHT22;11620;50.050;8.690;2022-08-25T05:07:26;22.50;99.90
22908;DHT22;11620;50.050;8.690;2022-08-25T05:10:12;22.50;99.90
22908;DHT22;11620;50.050;8.690;2022-08-25T05:12:57;22.50;99.90
22908;DHT22;11620;50.050;8.690;2022-08-25T05:15:41;22.50;99.90
22908;DHT22;11620;50.050;8.690;2022-08-25T05:18:35;22.50;99.90
22908;DHT22;11620;50.050;8.690;2022-08-25T05:21:24;22.50;99.90
22908;DHT22;11620;50.050;8.690;2022-08-25T05:24:08;22.50;99.90
22908;DHT22;11620;50.050;8.690;2022-08-25T05:26:53;22.40;99.90
22908;DHT22;11620;50.050;8.690;2022-08-25T05:29:38;22.40;99.90
22908;DHT22;11620;50.050;8.690;2022-08-25T05:32:22;22.50;99.90
22908;DHT22;11620;50.050;8.690;2022-08-25T05:35:08;22.50;99.90
22908;DHT22;11620;50.050;8.690;2022-08-25T05:37:52;22.50;99.90
22908;DHT22;11620;50.050;8.690;2022-08-25T05:40:37;22.50;99.90
22908;DHT22;11620;50.050;8.690;2022-08-25T05:43:21;22.50;99.90
22908;DHT22;11620;50.050;8.690;2022-08-25T05:46:06;22.60;99.90
22908;DHT22;11620;50.050;8.690;2022-08-25T05:48:51;22.60;99.90
22908;DHT22;11620;50.050;8.690;2022-08-25T05:51:36;22.70;99.90
22908;DHT22;11620;50.050;8.690;2022-08-25T05:54:20;22.70;99.90
22908;DHT22;11620;50.050;8.690;2022-08-25T05:57:05;22.70;99.90
22908;DHT22;11620;50.050;8.690;2022-08-25T05:59:50;22.80;99.90
22908;DHT22;11620;50.050;8.690;2022-08-25T06:02:36;22.90;99.90
22908;DHT22;11620;50.050;8.690;2022-08-25T06:05:24;23.00;99.90
22908;DHT22;11620;50.050;8.690;2022-08-25T06:08:09;23.10;99.90
22908;DHT22;11620;50.050;8.690;2022-08-25T06:10:53;23.20;99.90
22908;DHT22;11620;50.050;8.690;2022-08-25T06:13:38;23.50;99.90
22908;DHT22;11620;50.050;8.690;2022-08-25T06:16:23;23.70;99.90
22908;DHT22;11620;50.050;8.690;2022-08-25T06:19:08;23.90;99.90
22908;DHT22;11620;50.050;8.690;2022-08-25T06:21:54;24.10;99.90
22908;DHT22;11620;50.050;8.690;2022-08-25T06:24:39;24.40;99.90
22908;DHT22;11620;50.050;8.690;2022-08-25T06:27:23;24.50;99.90
22908;DHT22;11620;50.050;8.690;2022-08-25T06:30:10;24.70;99.90
22908;DHT22;11620;50.050;8.690;2022-08-25T06:32:55;25.00;99.90
22908;DHT22;11620;50.050;8.690;2022-08-25T06:35:43;25.20;99.90
22908;DHT22;11620;50.050;8.690;2022-08-25T06:38:28;25.40;99.90
22908;DHT22;11620;50.050;8.690;2022-08-25T06:41:13;25.60;99.90
22908;DHT22;11620;50.050;8.690;2022-08-25T06:43:58;25.80;99.90
22908;DHT22;11620;50.050;8.690;2022-08-25T06:46:42;26.00;99.90
22908;DHT22;11620;50.050;8.690;2022-08-25T06:49:27;26.10;99.90
22908;DHT22;11620;50.050;8.690;2022-08-25T06:52:12;26.30;99.90
22908;DHT22;11620;50.050;8.690;2022-08-25T06:54:57;26.50;99.90
22908;DHT22;11620;50.050;8.690;2022-08-25T06:57:41;26.60;99.90
22908;DHT22;11620;50.050;8.690;2022-08-25T07:00:25;26.90;99.90
22908;DHT22;11620;50.050;8.690;2022-08-25T07:03:10;27.10;99.90
22908;DHT22;11620;50.050;8.690;2022-08-25T07:05:55;27.20;99.90
22908;DHT22;11620;50.050;8.690;2022-08-25T07:08:40;27.40;99.90
22908;DHT22;11620;50.050;8.690;2022-08-25T07:11:27;27.50;99.90
22908;DHT22;11620;50.050;8.690;2022-08-25T07:14:14;27.70;99.90
22908;DHT22;11620;50.050;8.690;2022-08-25T07:17:00;27.90;99.90
22908;DHT22;11620;50.050;8.690;2022-08-25T07:19:47;28.00;99.90
22908;DHT22;11620;50.050;8.690;2022-08-25T07:22:32;28.10;99.90
22908;DHT22;11620;50.050;8.690;2022-08-25T07:25:16;28.30;99.90
22908;DHT22;11620;50.050;8.690;2022-08-25T07:28:01;28.50;99.90
22908;DHT22;11620;50.050;8.690;2022-08-25T07:30:46;28.50;99.90
22908;DHT22;11620;50.050;8.690;2022-08-25T07:33:31;28.50;99.90
22908;DHT22;11620;50.050;8.690;2022-08-25T07:36:18;28.60;99.90
22908;DHT22;11620;50.050;8.690;2022-08-25T07:39:03;28.80;99.90
22908;DHT22;11620;50.050;8.690;2022-08-25T07:41:50;28.80;99.90
22908;DHT22;11620;50.050;8.690;2022-08-25T07:44:35;29.00;99.90
22908;DHT22;11620;50.050;8.690;2022-08-25T07:47:19;29.10;99.90
22908;DHT22;11620;50.050;8.690;2022-08-25T07:50:10;29.30;99.90
22908;DHT22;11620;50.050;8.690;2022-08-25T07:52:56;29.20;99.90
22908;DHT22;11620;50.050;8.690;2022-08-25T07:55:41;29.40;99.90
22908;DHT22;11620;50.050;8.690;2022-08-25T07:58:26;29.70;99.90
22908;DHT22;11620;50.050;8.690;2022-08-25T08:01:15;29.70;99.90
22908;DHT22;11620;50.050;8.690;2022-08-25T08:04:00;29.80;99.90
22908;DHT22;11620;50.050;8.690;2022-08-25T08:06:44;30.00;99.90
22908;DHT22;11620;50.050;8.690;2022-08-25T08:09:29;30.20;99.90
22908;DHT22;11620;50.050;8.690;2022-08-25T08:12:14;30.40;99.90
22908;DHT22;11620;50.050;8.690;2022-08-25T08:14:59;30.60;99.90
22908;DHT22;11620;50.050;8.690;2022-08-25T08:17:44;30.90;99.90
22908;DHT22;11620;50.050;8.690;2022-08-25T08:20:29;30.80;99.90
22908;DHT22;11620;50.050;8.690;2022-08-25T08:23:17;30.80;99.90
22908;DHT22;11620;50.050;8.690;2022-08-25T08:26:01;30.90;99.90
22908;DHT22;11620;50.050;8.690;2022-08-25T08:28:48;31.00;99.90
22908;DHT22;11620;50.050;8.690;2022-08-25T08:31:34;31.10;99.90
22908;DHT22;11620;50.050;8.690;2022-08-25T08:34:19;31.30;99.90
22908;DHT22;11620;50.050;8.690;2022-08-25T08:37:03;31.50;99.90
22908;DHT22;11620;50.050;8.690;2022-08-25T08:39:48;31.70;99.90
22908;DHT22;11620;50.050;8.690;2022-08-25T08:43:05;31.70;99.90
22908;DHT22;11620;50.050;8.690;2022-08-25T08:45:52;31.80;99.90
22908;DHT22;11620;50.050;8.690;2022-08-25T08:51:42;32.20;99.90
22908;DHT22;11620;50.050;8.690;2022-08-25T08:54:34;32.40;99.90
22908;DHT22;11620;50.050;8.690;2022-08-25T08:57:24;32.60;99.90
22908;DHT22;11620;50.050;8.690;2022-08-25T09:00:10;32.40;99.90
22908;DHT22;11620;50.050;8.690;2022-08-25T09:03:07;32.70;99.90
22908;DHT22;11620;50.050;8.690;2022-08-25T09:05:55;32.70;99.90
22908;DHT22;11620;50.050;8.690;2022-08-25T09:08:44;32.90;99.90
22908;DHT22;11620;50.050;8.690;2022-08-25T09:11:56;33.20;99.90
22908;DHT22;11620;50.050;8.690;2022-08-25T09:14:57;33.30;99.90
22908;DHT22;11620;50.050;8.690;2022-08-25T09:21:33;33.60;99.90
22908;DHT22;11620;50.050;8.690;2022-08-25T09:30:17;34.00;99.90
22908;DHT22;11620;50.050;8.690;2022-08-25T09:33:02;34.10;99.90
22908;DHT22;11620;50.050;8.690;2022-08-25T09:35:49;34.20;99.90
22908;DHT22;11620;50.050;8.690;2022-08-25T09:38:34;34.20;99.90
22908;DHT22;11620;50.050;8.690;2022-08-25T09:41:57;34.30;99.90
22908;DHT22;11620;50.050;8.690;2022-08-25T09:44:44;34.40;99.90
22908;DHT22;11620;50.050;8.690;2022-08-25T09:47:28;34.60;99.90
22908;DHT22;11620;50.050;8.690;2022-08-25T09:50:15;34.60;99.70
22908;DHT22;11620;50.050;8.690;2022-08-25T09:53:13;34.60;99.80
22908;DHT22;11620;50.050;8.690;2022-08-25T09:56:01;34.80;99.60
22908;DHT22;11620;50.050;8.690;2022-08-25T09:58:48;34.80;99.80
22908;DHT22;11620;50.050;8.690;2022-08-25T10:01:32;34.90;99.20
22908;DHT22;11620;50.050;8.690;2022-08-25T10:04:29;34.80;99.00
22908;DHT22;11620;50.050;8.690;2022-08-25T10:07:52;34.10;99.10
22908;DHT22;11620;50.050;8.690;2022-08-25T10:10:45;34.30;99.00
22908;DHT22;11620;50.050;8.690;2022-08-25T10:13:43;34.60;98.40
22908;DHT22;11620;50.050;8.690;2022-08-25T10:16:30;35.00;98.90
22908;DHT22;11620;50.050;8.690;2022-08-25T10:19:27;35.30;98.30
22908;DHT22;11620;50.050;8.690;2022-08-25T10:22:23;35.10;97.70
22908;DHT22;11620;50.050;8.690;2022-08-25T10:25:28;35.00;97.60
22908;DHT22;11620;50.050;8.690;2022-08-25T10:28:29;35.30;97.90
22908;DHT22;11620;50.050;8.690;2022-08-25T10:31:19;35.50;97.80
22908;DHT22;11620;50.050;8.690;2022-08-25T10:34:31;35.80;96.90
22908;DHT22;11620;50.050;8.690;2022-08-25T10:37:40;35.70;96.80
22908;DHT22;11620;50.050;8.690;2022-08-25T10:40:33;35.20;97.00
22908;DHT22;11620;50.050;8.690;2022-08-25T10:43:34;35.40;96.80
22908;DHT22;11620;50.050;8.690;2022-08-25T10:46:44;35.60;96.70
22908;DHT22;11620;50.050;8.690;2022-08-25T10:49:50;35.00;96.60
22908;DHT22;11620;50.050;8.690;2022-08-25T11:05:41;35.70;96.70
22908;DHT22;11620;50.050;8.690;2022-08-25T11:08:31;35.80;95.10
22908;DHT22;11620;50.050;8.690;2022-08-25T11:17:47;34.70;95.50
22908;DHT22;11620;50.050;8.690;2022-08-25T11:21:06;34.80;95.60
22908;DHT22;11620;50.050;8.690;2022-08-25T11:23:58;35.50;96.20
22908;DHT22;11620;50.050;8.690;2022-08-25T11:26:52;35.70;95.90
22908;DHT22;11620;50.050;8.690;2022-08-25T11:29:38;36.20;95.20
22908;DHT22;11620;50.050;8.690;2022-08-25T11:32:25;36.30;95.20
22908;DHT22;11620;50.050;8.690;2022-08-25T11:35:11;36.50;94.50
22908;DHT22;11620;50.050;8.690;2022-08-25T11:49:52;35.70;93.60
22908;DHT22;11620;50.050;8.690;2022-08-25T11:52:49;34.90;94.00
22908;DHT22;11620;50.050;8.690;2022-08-25T12:04:40;33.60;95.40
22908;DHT22;11620;50.050;8.690;2022-08-25T12:07:29;34.00;96.00
22908;DHT22;11620;50.050;8.690;2022-08-25T12:10:18;34.10;95.40
22908;DHT22;11620;50.050;8.690;2022-08-25T12:13:24;33.90;95.40
22908;DHT22;11620;50.050;8.690;2022-08-25T12:24:51;34.30;95.60
22908;DHT22;11620;50.050;8.690;2022-08-25T12:30:53;34.60;95.20
22908;DHT22;11620;50.050;8.690;2022-08-25T12:34:06;34.30;94.70
22908;DHT22;11620;50.050;8.690;2022-08-25T12:40:02;34.00;95.00
22908;DHT22;11620;50.050;8.690;2022-08-25T12:43:00;34.60;94.60
22908;DHT22;11620;50.050;8.690;2022-08-25T12:45:48;34.90;94.70
22908;DHT22;11620;50.050;8.690;2022-08-25T12:51:19;34.80;93.80
22908;DHT22;11620;50.050;8.690;2022-08-25T12:54:22;34.80;94.10
22908;DHT22;11620;50.050;8.690;2022-08-25T12:57:37;35.30;94.40
22908;DHT22;11620;50.050;8.690;2022-08-25T13:00:25;35.80;93.80
22908;DHT22;11620;50.050;8.690;2022-08-25T13:15:36;35.10;94.00
22908;DHT22;11620;50.050;8.690;2022-08-25T13:18:32;35.50;93.90
22908;DHT22;11620;50.050;8.690;2022-08-25T13:21:37;35.90;93.40
22908;DHT22;11620;50.050;8.690;2022-08-25T13:24:25;35.70;93.40
22908;DHT22;11620;50.050;8.690;2022-08-25T13:27:25;35.90;93.50
22908;DHT22;11620;50.050;8.690;2022-08-25T13:30:22;35.20;93.40
22908;DHT22;11620;50.050;8.690;2022-08-25T13:33:17;34.90;93.60
22908;DHT22;11620;50.050;8.690;2022-08-25T13:36:04;34.70;93.90
22908;DHT22;11620;50.050;8.690;2022-08-25T13:39:18;34.80;94.00
22908;DHT22;11620;50.050;8.690;2022-08-25T13:42:13;34.90;94.00
22908;DHT22;11620;50.050;8.690;2022-08-25T13:45:00;35.10;93.70
22908;DHT22;11620;50.050;8.690;2022-08-25T13:47:47;35.40;93.60
22908;DHT22;11620;50.050;8.690;2022-08-25T13:50:36;35.20;93.10
22908;DHT22;11620;50.050;8.690;2022-08-25T13:53:25;34.70;93.00
22908;DHT22;11620;50.050;8.690;2022-08-25T13:56:22;34.30;93.50
22908;DHT22;11620;50.050;8.690;2022-08-25T13:59:26;34.40;93.60
22908;DHT22;11620;50.050;8.690;2022-08-25T14:02:38;34.90;93.10
22908;DHT22;11620;50.050;8.690;2022-08-25T14:05:38;35.40;92.90
22908;DHT22;11620;50.050;8.690;2022-08-25T14:08:30;35.90;93.20
22908;DHT22;11620;50.050;8.690;2022-08-25T14:11:39;35.70;92.40
22908;DHT22;11620;50.050;8.690;2022-08-25T14:17:16;35.10;92.40
22908;DHT22;11620;50.050;8.690;2022-08-25T14:20:04;35.10;92.80
22908;DHT22;11620;50.050;8.690;2022-08-25T14:22:54;34.80;93.10
22908;DHT22;11620;50.050;8.690;2022-08-25T14:25:41;34.60;93.00
22908;DHT22;11620;50.050;8.690;2022-08-25T14:28:29;34.60;93.20
22908;DHT22;11620;50.050;8.690;2022-08-25T14:31:32;34.40;93.10
22908;DHT22;11620;50.050;8.690;2022-08-25T14:34:24;34.30;93.10
22908;DHT22;11620;50.050;8.690;2022-08-25T14:37:15;34.40;93.20
22908;DHT22;11620;50.050;8.690;2022-08-25T14:40:03;34.40;92.60
22908;DHT22;11620;50.050;8.690;2022-08-25T14:42:49;34.30;92.70
22908;DHT22;11620;50.050;8.690;2022-08-25T14:45:38;34.70;93.40
22908;DHT22;11620;50.050;8.690;2022-08-25T14:48:28;34.90;93.20
22908;DHT22;11620;50.050;8.690;2022-08-25T14:51:16;35.10;92.40
22908;DHT22;11620;50.050;8.690;2022-08-25T14:54:05;35.00;92.10
22908;DHT22;11620;50.050;8.690;2022-08-25T14:56:52;35.10;93.10
22908;DHT22;11620;50.050;8.690;2022-08-25T14:59:39;34.80;92.10
22908;DHT22;11620;50.050;8.690;2022-08-25T15:02:25;34.00;92.40
22908;DHT22;11620;50.050;8.690;2022-08-25T15:05:15;33.90;92.70
22908;DHT22;11620;50.050;8.690;2022-08-25T15:08:02;34.20;92.70
22908;DHT22;11620;50.050;8.690;2022-08-25T15:11:07;34.20;92.20
22908;DHT22;11620;50.050;8.690;2022-08-25T15:13:53;34.30;92.60
22908;DHT22;11620;50.050;8.690;2022-08-25T15:16:43;34.50;92.40
22908;DHT22;11620;50.050;8.690;2022-08-25T15:19:30;34.20;92.40
22908;DHT22;11620;50.050;8.690;2022-08-25T15:22:16;34.00;92.30
22908;DHT22;11620;50.050;8.690;2022-08-25T15:25:03;34.20;92.80
22908;DHT22;11620;50.050;8.690;2022-08-25T15:27:49;34.20;92.40
22908;DHT22;11620;50.050;8.690;2022-08-25T15:30:36;34.30;92.80
22908;DHT22;11620;50.050;8.690;2022-08-25T15:33:22;34.40;92.60
22908;DHT22;11620;50.050;8.690;2022-08-25T15:36:11;34.40;92.70
22908;DHT22;11620;50.050;8.690;2022-08-25T15:38:58;34.10;92.80
22908;DHT22;11620;50.050;8.690;2022-08-25T15:41:46;34.10;93.00
22908;DHT22;11620;50.050;8.690;2022-08-25T15:44:38;34.10;93.10
22908;DHT22;11620;50.050;8.690;2022-08-25T15:47:24;33.80;92.90
22908;DHT22;11620;50.050;8.690;2022-08-25T15:50:14;33.70;93.00
22908;DHT22;11620;50.050;8.690;2022-08-25T15:53:01;33.70;93.30
22908;DHT22;11620;50.050;8.690;2022-08-25T15:55:48;33.80;92.60
22908;DHT22;11620;50.050;8.690;2022-08-25T15:58:35;33.70;92.60
22908;DHT22;11620;50.050;8.690;2022-08-25T16:01:24;33.50;92.20
22908;DHT22;11620;50.050;8.690;2022-08-25T16:04:11;33.30;92.60
22908;DHT22;11620;50.050;8.690;2022-08-25T16:06:58;33.30;92.50
22908;DHT22;11620;50.050;8.690;2022-08-25T16:09:46;33.50;92.30
22908;DHT22;11620;50.050;8.690;2022-08-25T16:12:32;33.30;92.20
22908;DHT22;11620;50.050;8.690;2022-08-25T16:15:18;33.20;92.70
22908;DHT22;11620;50.050;8.690;2022-08-25T16:18:06;33.20;92.70
22908;DHT22;11620;50.050;8.690;2022-08-25T16:20:54;33.10;93.00
22908;DHT22;11620;50.050;8.690;2022-08-25T16:23:41;33.10;92.60
22908;DHT22;11620;50.050;8.690;2022-08-25T16:26:28;33.10;92.90
22908;DHT22;11620;50.050;8.690;2022-08-25T16:29:16;32.90;92.50
22908;DHT22;11620;50.050;8.690;2022-08-25T16:32:03;32.90;92.40
22908;DHT22;11620;50.050;8.690;2022-08-25T16:34:50;32.80;92.70
22908;DHT22;11620;50.050;8.690;2022-08-25T16:37:36;32.80;92.60
22908;DHT22;11620;50.050;8.690;2022-08-25T16:40:23;32.90;92.80
22908;DHT22;11620;50.050;8.690;2022-08-25T16:43:11;32.90;92.60
22908;DHT22;11620;50.050;8.690;2022-08-25T16:45:59;32.80;92.50
22908;DHT22;11620;50.050;8.690;2022-08-25T16:48:47;32.60;92.70
22908;DHT22;11620;50.050;8.690;2022-08-25T16:51:36;32.70;92.80
22908;DHT22;11620;50.050;8.690;2022-08-25T16:54:24;32.70;93.10
22908;DHT22;11620;50.050;8.690;2022-08-25T16:57:29;32.70;93.00
22908;DHT22;11620;50.050;8.690;2022-08-25T17:00:19;32.70;92.80
22908;DHT22;11620;50.050;8.690;2022-08-25T17:03:07;32.50;93.50
22908;DHT22;11620;50.050;8.690;2022-08-25T17:05:57;32.40;92.90
22908;DHT22;11620;50.050;8.690;2022-08-25T17:08:44;32.40;93.60
22908;DHT22;11620;50.050;8.690;2022-08-25T17:11:33;32.40;93.60
22908;DHT22;11620;50.050;8.690;2022-08-25T17:14:21;32.40;94.80
22908;DHT22;11620;50.050;8.690;2022-08-25T17:17:07;32.40;93.80
22908;DHT22;11620;50.050;8.690;2022-08-25T17:19:56;32.20;93.70
22908;DHT22;11620;50.050;8.690;2022-08-25T17:22:42;32.20;93.80
22908;DHT22;11620;50.050;8.690;2022-08-25T17:25:29;32.20;94.40
22908;DHT22;11620;50.050;8.690;2022-08-25T17:28:18;32.00;93.90
22908;DHT22;11620;50.050;8.690;2022-08-25T17:31:09;31.90;93.80
22908;DHT22;11620;50.050;8.690;2022-08-25T17:33:55;31.80;93.50
22908;DHT22;11620;50.050;8.690;2022-08-25T17:36:42;31.80;94.00
22908;DHT22;11620;50.050;8.690;2022-08-25T17:39:29;31.80;95.50
22908;DHT22;11620;50.050;8.690;2022-08-25T17:42:15;31.80;93.80
22908;DHT22;11620;50.050;8.690;2022-08-25T17:45:02;31.80;94.50
22908;DHT22;11620;50.050;8.690;2022-08-25T17:47:48;31.80;94.20
22908;DHT22;11620;50.050;8.690;2022-08-25T17:50:36;31.80;94.50
22908;DHT22;11620;50.050;8.690;2022-08-25T17:53:22;31.80;95.40
22908;DHT22;11620;50.050;8.690;2022-08-25T17:56:12;31.80;94.70
22908;DHT22;11620;50.050;8.690;2022-08-25T17:58:59;31.80;94.40
22908;DHT22;11620;50.050;8.690;2022-08-25T18:01:47;31.80;94.00
22908;DHT22;11620;50.050;8.690;2022-08-25T18:04:35;31.80;94.20
22908;DHT22;11620;50.050;8.690;2022-08-25T18:07:23;31.80;94.70
22908;DHT22;11620;50.050;8.690;2022-08-25T18:10:09;31.70;94.50
22908;DHT22;11620;50.050;8.690;2022-08-25T18:12:56;31.60;94.30
22908;DHT22;11620;50.050;8.690;2022-08-25T18:15:45;31.60;94.20
22908;DHT22;11620;50.050;8.690;2022-08-25T18:18:32;31.50;94.40
22908;DHT22;11620;50.050;8.690;2022-08-25T18:21:20;31.50;94.90
22908;DHT22;11620;50.050;8.690;2022-08-25T18:24:10;31.40;95.10
22908;DHT22;11620;50.050;8.690;2022-08-25T18:26:56;31.40;94.70
22908;DHT22;11620;50.050;8.690;2022-08-25T18:29:43;31.30;96.40
22908;DHT22;11620;50.050;8.690;2022-08-25T18:32:30;31.20;96.70
22908;DHT22;11620;50.050;8.690;2022-08-25T18:35:17;31.20;96.80
22908;DHT22;11620;50.050;8.690;2022-08-25T18:38:04;31.10;96.20
22908;DHT22;11620;50.050;8.690;2022-08-25T18:41:09;30.90;97.50
22908;DHT22;11620;50.050;8.690;2022-08-25T18:43:56;30.80;96.40
22908;DHT22;11620;50.050;8.690;2022-08-25T18:46:42;30.70;96.40
22908;DHT22;11620;50.050;8.690;2022-08-25T18:49:29;30.60;96.60
22908;DHT22;11620;50.050;8.690;2022-08-25T18:52:15;30.60;97.60
22908;DHT22;11620;50.050;8.690;2022-08-25T18:55:02;30.50;97.60
22908;DHT22;11620;50.050;8.690;2022-08-25T18:57:52;30.40;97.60
22908;DHT22;11620;50.050;8.690;2022-08-25T19:00:42;30.40;97.70
22908;DHT22;11620;50.050;8.690;2022-08-25T19:03:29;30.40;97.70
22908;DHT22;11620;50.050;8.690;2022-08-25T19:06:16;30.30;97.80
22908;DHT22;11620;50.050;8.690;2022-08-25T19:09:04;30.30;98.50
22908;DHT22;11620;50.050;8.690;2022-08-25T19:11:50;30.20;98.40
22908;DHT22;11620;50.050;8.690;2022-08-25T19:14:37;30.20;98.50
22908;DHT22;11620;50.050;8.690;2022-08-25T19:17:24;30.10;98.60